Time;durP1;ratioP1;P1;durP2;ratioP2;P2;SDS_P1;SDS_P2;PMS_P1;PMS_P2;Temp;Humidity;BMP_temperature;BMP_pressure;BME280_temperature;BME280_humidity;BME280_pressure;Samples;Min_cycle;Max_cycle;Signal;HPM_P1;HPM_P2
2021/04/19 05:30:57;;;;;;;43.17;30.30;;;;;;;7.91;90.69;100526.30;1728641;79;27112;-62
2021/04/19 05:33:24;;;;;;;50.15;31.82;;;;;;;8.09;90.88;100528.80;1729125;81;25325;-62
2021/04/19 05:35:51;;;;;;;52.00;34.23;;;;;;;8.21;91.08;100525.97;1711432;82;25725;-62
2021/04/19 05:38:18;;;;;;;50.67;33.60;;;;;;;8.36;91.10;100530.39;1723098;82;25294;-62
2021/04/19 05:40:46;;;;;;;50.20;33.85;;;;;;;8.50;91.11;100527.02;1700000;83;25543;-62
2021/04/19 05:43:14;;;;;;;48.13;33.92;;;;;;;8.65;91.25;100531.39;1722817;83;25465;-63
2021/04/19 05:45:42;;;;;;;52.08;34.27;;;;;;;8.78;91.32;100523.94;1722879;83;25478;-62
2021/04/19 05:48:10;;;;;;;50.15;33.95;;;;;;;8.91;91.13;100514.33;1700058;83;26692;-62
2021/04/19 05:50:39;;;;;;;53.60;34.25;;;;;;;9.05;91.02;100508.44;1699987;83;25407;-62
2021/04/19 05:53:06;;;;;;;52.45;34.23;;;;;;;9.21;90.90;100505.50;1722632;81;25416;-62
2021/04/19 05:55:34;;;;;;;48.15;33.67;;;;;;;9.35;90.67;100497.72;1702447;83;25510;-62
2021/04/19 05:58:27;;;;;;;51.65;35.68;;;;;;;9.50;90.67;100488.56;1729892;81;25472;-62
2021/04/19 06:01:11;;;;;;;56.85;37.55;;;;;;;9.68;90.77;100494.19;1726707;82;25803;-62
2021/04/19 06:03:53;;;;;;;53.68;36.05;;;;;;;9.88;90.89;100498.42;1745349;82;25438;-63
2021/04/19 06:06:37;;;;;;;55.20;37.80;;;;;;;10.04;90.55;100501.63;1739845;82;25517;-63
2021/04/19 06:09:38;;;;;;;56.48;35.73;;;;;;;10.22;90.53;100506.13;1711735;83;25485;-61
2021/04/19 06:12:11;;;;;;;59.88;38.35;;;;;;;10.43;90.72;100511.94;1708382;83;25459;-62
2021/04/19 06:14:47;;;;;;;51.60;36.25;;;;;;;10.65;90.57;100516.62;1721069;82;25778;-62
2021/04/19 06:17:15;;;;;;;48.40;34.80;;;;;;;10.84;90.13;100510.27;1711827;82;25539;-63
2021/04/19 06:19:45;;;;;;;43.77;33.37;;;;;;;11.03;89.77;100507.39;1712078;83;25515;-62
2021/04/19 06:22:17;;;;;;;46.50;34.70;;;;;;;11.23;89.57;100508.03;1712140;83;25427;-62
2021/04/19 06:24:47;;;;;;;43.40;31.77;;;;;;;11.37;89.23;100506.05;1711888;83;25306;-63
2021/04/19 06:27:23;;;;;;;47.48;35.73;;;;;;;11.57;88.80;100509.59;1711957;83;26014;-63
2021/04/19 06:29:51;;;;;;;59.40;36.20;;;;;;;11.75;88.45;100508.35;1711821;83;25314;-64
2021/04/19 06:32:22;;;;;;;39.90;30.27;;;;;;;11.96;88.57;100508.06;1717571;83;25445;-63
2021/04/19 06:34:51;;;;;;;44.77;31.23;;;;;;;12.15;87.67;100509.73;1720068;81;25646;-62
2021/04/19 06:37:20;;;;;;;40.08;30.92;;;;;;;12.39;88.31;100509.88;1718563;83;25345;-63
2021/04/19 06:39:47;;;;;;;38.95;28.70;;;;;;;12.59;88.19;100512.56;1741855;82;25700;-63
2021/04/19 06:42:14;;;;;;;46.15;32.65;;;;;;;12.80;87.43;100510.02;1742425;82;25250;-63
2021/04/19 06:44:42;;;;;;;39.98;29.57;;;;;;;13.00;87.23;100505.88;1742595;82;25313;-62
2021/04/19 06:47:10;;;;;;;35.73;28.67;;;;;;;13.18;85.94;100508.83;1715085;82;25491;-63
2021/04/19 06:49:37;;;;;;;36.10;28.20;;;;;;;13.34;85.23;100507.78;1741824;82;25525;-64
2021/04/19 06:52:05;;;;;;;38.45;30.60;;;;;;;13.52;84.56;100505.84;1714828;82;25795;-64
2021/04/19 07:16:51;;;;;;;25.92;22.02;;;;;;;15.49;81.52;100514.00;1709512;82;25337;-67
2021/04/19 07:19:21;;;;;;;26.00;21.50;;;;;;;15.82;80.55;100516.48;1736157;82;25496;-67
2021/04/19 07:21:49;;;;;;;;;;;;;;;16.17;80.89;100518.77;1749146;82;25471;-67
2021/04/19 08:14:16;;;;;;;11.75;9.85;;;;;;;19.25;64.77;100517.50;1716458;83;26150;-63
2021/04/19 08:16:45;;;;;;;11.50;10.03;;;;;;;19.24;64.69;100511.23;1716058;83;25806;-62
2021/04/19 08:19:12;;;;;;;11.48;8.95;;;;;;;19.35;63.20;100516.91;1716038;83;25855;-63
2021/04/19 08:21:44;;;;;;;13.25;10.40;;;;;;;19.30;63.51;100512.51;1716303;83;25550;-63
2021/04/19 08:24:19;;;;;;;12.40;8.90;;;;;;;19.39;64.58;100513.64;1716822;82;25478;-62
2021/04/19 08:26:59;;;;;;;12.65;9.33;;;;;;;19.49;64.84;100518.53;1717273;83;25948;-63
2021/04/19 08:29:44;;;;;;;12.00;9.28;;;;;;;19.38;61.18;100513.45;1717166;83;25512;-63
2021/04/19 08:32:21;;;;;;;11.85;8.98;;;;;;;19.14;60.53;100515.94;1717250;82;25362;-63
2021/04/19 08:34:50;;;;;;;12.93;9.50;;;;;;;19.09;62.31;100510.74;1717255;83;25480;-63
2021/04/19 08:41:18;;;;;;;;;;;;;;;19.51;62.06;100510.76;1719722;83;25748;-62
2021/04/19 08:48:11;;;;;;;10.78;8.83;;;;;;;20.19;60.18;100507.57;1717121;83;25324;-62
2021/04/19 08:50:44;;;;;;;9.43;8.45;;;;;;;20.53;58.33;100504.33;1717168;83;25534;-59
2021/04/19 08:53:14;;;;;;;10.53;8.00;;;;;;;20.82;59.23;100500.05;1717233;82;25478;-60
2021/04/19 08:59:46;;;;;;;11.83;8.53;;;;;;;21.27;57.31;100511.95;1717061;83;25451;-61
2021/04/19 09:02:15;;;;;;;10.68;9.13;;;;;;;21.39;53.96;100510.91;1717211;82;25473;-61
2021/04/19 09:13:13;;;;;;;8.80;7.47;;;;;;;21.79;54.30;100501.09;1716331;83;25911;-61
2021/04/19 09:15:43;;;;;;;7.62;6.83;;;;;;;21.84;50.47;100510.95;1716075;83;25489;-60
2021/04/19 09:22:13;;;;;;;8.25;6.28;;;;;;;21.83;50.06;100508.78;1772716;77;26797;-60
2021/04/19 09:28:53;;;;;;;7.72;6.62;;;;;;;21.74;47.12;100508.33;1776965;80;25782;-61
2021/04/19 09:31:28;;;;;;;10.70;8.10;;;;;;;21.71;45.65;100506.89;1777576;80;25506;-61
2021/04/19 09:37:56;;;;;;;9.03;7.58;;;;;;;21.67;45.36;100501.36;1777852;80;25598;-60
2021/04/19 09:44:27;;;;;;;9.50;7.40;;;;;;;21.76;46.51;100499.09;1777933;80;25693;-60
2021/04/19 09:51:24;;;;;;;12.15;7.30;;;;;;;22.32;47.43;100493.05;1746386;82;25684;-59
2021/04/19 09:54:06;;;;;;;7.90;7.05;;;;;;;22.73;46.31;100492.86;1753964;80;26191;-59
2021/04/19 19:28:38;;;;;;;16.37;11.85;;;;;;;9.70;55.05;100352.87;1749896;76;25709;-70
2021/04/19 19:31:06;;;;;;;22.73;17.70;;;;;;;9.64;55.82;100354.89;1794252;79;25648;-71
2021/04/19 19:33:33;;;;;;;26.40;17.80;;;;;;;9.62;56.09;100358.45;1794727;79;25655;-71
2021/04/19 19:36:04;;;;;;;25.17;18.77;;;;;;;9.58;55.73;100354.73;1793439;79;26260;-71
2021/04/19 19:38:31;;;;;;;23.80;17.67;;;;;;;9.54;55.87;100357.23;1794407;79;26595;-70
2021/04/19 19:40:58;;;;;;;21.45;16.25;;;;;;;9.50;55.84;100363.53;1787949;78;25314;-69
2021/04/19 19:43:25;;;;;;;22.22;17.25;;;;;;;9.43;56.35;100359.91;1762953;81;25621;-71
2021/04/19 19:45:55;;;;;;;20.50;15.35;;;;;;;9.39;56.51;100357.53;1762323;81;25695;-72
2021/04/19 19:48:22;;;;;;;23.95;18.27;;;;;;;9.38;56.66;100358.66;1762402;81;25701;-71
2021/04/19 19:50:49;;;;;;;26.25;17.20;;;;;;;9.36;57.04;100356.78;1762929;81;26044;-70
2021/04/19 19:53:18;;;;;;;24.37;17.52;;;;;;;9.33;57.18;100358.19;1763180;81;25656;-69
2021/04/19 19:55:45;;;;;;;21.52;13.20;;;;;;;9.29;57.44;100362.56;1763313;81;26387;-71
2021/04/19 19:58:12;;;;;;;20.77;13.83;;;;;;;9.26;57.65;100359.67;1762840;81;25666;-72
2021/04/19 20:00:45;;;;;;;20.37;13.38;;;;;;;9.22;57.82;100362.16;1763084;81;26283;-71
2021/04/19 20:05:50;;;;;;;22.02;14.65;;;;;;;9.22;58.42;100358.12;1752635;79;25628;-76
2021/04/19 20:08:19;;;;;;;26.80;15.03;;;;;;;9.21;58.91;100356.53;1750070;81;26360;-74
2021/04/19 20:10:47;;;;;;;25.65;16.45;;;;;;;9.20;58.72;100359.53;1750941;81;25605;-73
2021/04/19 20:13:17;;;;;;;23.87;15.60;;;;;;;9.21;58.86;100357.06;1730086;81;25643;-72
2021/04/19 20:15:44;;;;;;;22.00;15.48;;;;;;;9.22;59.24;100350.58;1751759;81;25870;-71
2021/04/19 20:19:19;;;;;;;24.30;15.78;;;;;;;9.22;59.31;100345.97;1711298;81;26349;-75
2021/04/19 20:22:05;;;;;;;27.67;16.35;;;;;;;9.24;59.28;100351.87;1723030;81;25830;-72
2021/04/19 20:24:33;;;;;;;24.25;16.32;;;;;;;9.24;59.38;100338.37;1719585;83;26087;-70
2021/04/19 20:27:00;;;;;;;24.40;16.15;;;;;;;9.25;59.56;100341.34;1717875;81;25656;-70
2021/04/19 20:29:29;;;;;;;22.82;16.23;;;;;;;9.26;59.95;100343.48;1750990;81;56284;-71
2021/04/19 20:31:55;;;;;;;27.05;16.62;;;;;;;9.26;60.30;100346.17;1751172;81;25730;-70
2021/04/19 20:34:22;;;;;;;21.85;15.45;;;;;;;9.25;60.44;100344.03;1751276;81;25716;-69
2021/04/19 20:36:52;;;;;;;23.83;16.12;;;;;;;9.22;60.37;100343.27;1740419;81;25648;-71
2021/04/19 20:39:19;;;;;;;24.20;16.42;;;;;;;9.18;60.36;100339.59;1721329;83;25845;-71
2021/04/19 20:41:48;;;;;;;26.57;17.12;;;;;;;9.13;60.25;100336.42;1721502;83;25726;-70
2021/04/19 20:44:18;;;;;;;26.87;18.30;;;;;;;9.08;60.76;100331.12;1721506;83;25668;-71
2021/04/19 20:46:49;;;;;;;24.90;17.35;;;;;;;9.04;60.68;100332.00;1720695;83;25621;-72
2021/04/19 20:49:18;;;;;;;28.77;19.17;;;;;;;8.97;60.82;100333.73;1730651;81;25657;-72
2021/04/19 20:51:45;;;;;;;31.27;20.15;;;;;;;8.94;60.90;100336.49;1746637;81;25702;-73
2021/04/19 20:54:14;;;;;;;29.00;19.23;;;;;;;8.90;60.97;100330.07;1749202;81;25773;-71
2021/04/19 20:59:29;;;;;;;30.40;19.62;;;;;;;8.87;61.38;100337.43;1741557;81;25668;-74
2021/04/19 21:02:08;;;;;;;32.27;23.10;;;;;;;8.91;61.85;100341.13;1798621;74;28580;-78
2021/04/19 21:04:36;;;;;;;30.30;20.27;;;;;;;8.90;61.62;100342.77;1756659;80;25675;-77
2021/04/19 21:07:58;;;;;;;35.33;21.60;;;;;;;8.90;61.55;100338.72;1721607;82;25784;-77
2021/04/19 21:13:32;;;;;;;58.15;34.15;;;;;;;8.93;61.84;100335.44;1787072;78;35213;-71
2021/04/19 21:15:58;;;;;;;49.18;29.52;;;;;;;8.85;61.77;100328.02;1792694;79;25609;-72
2021/04/19 21:18:27;;;;;;;32.90;23.15;;;;;;;8.83;61.65;100335.06;1792702;80;25701;-72
2021/04/19 21:20:54;;;;;;;34.98;24.10;;;;;;;8.78;61.50;100337.84;1759796;81;25775;-72
2021/04/19 21:23:21;;;;;;;35.23;23.85;;;;;;;8.76;61.56;100336.78;1761162;81;25761;-72
2021/04/19 21:25:50;;;;;;;34.65;24.07;;;;;;;8.72;61.73;100347.92;1760965;81;25711;-74
2021/04/19 21:28:17;;;;;;;40.23;24.85;;;;;;;8.69;61.66;100345.81;1761314;81;25704;-73
2021/04/19 21:30:44;;;;;;;36.23;24.18;;;;;;;8.67;61.67;100343.96;1760758;81;25795;-72
2021/04/19 21:33:11;;;;;;;36.50;23.00;;;;;;;8.66;61.68;100342.91;1758746;81;26435;-72
2021/04/19 21:35:38;;;;;;;39.08;23.87;;;;;;;8.66;61.90;100348.30;1759287;81;25708;-73
2021/04/19 21:38:05;;;;;;;34.90;23.98;;;;;;;8.64;62.08;100343.75;1759336;81;25957;-73
2021/04/19 21:40:32;;;;;;;39.10;23.42;;;;;;;8.62;62.15;100345.39;1760907;81;25900;-73
2021/04/19 21:43:11;;;;;;;38.92;24.00;;;;;;;8.66;62.43;100347.74;1847504;76;34811;-74
2021/04/19 21:45:39;;;;;;;38.33;25.00;;;;;;;8.57;62.64;100343.56;1816932;78;25674;-74
2021/04/19 21:48:08;;;;;;;40.23;24.87;;;;;;;8.55;62.47;100350.36;1817019;78;26914;-73
2021/04/19 21:50:37;;;;;;;41.80;24.72;;;;;;;8.50;62.51;100346.41;1817105;78;25694;-73
2021/04/19 21:53:07;;;;;;;41.33;25.20;;;;;;;8.45;62.37;100353.22;1813741;78;25652;-73
2021/04/19 21:55:35;;;;;;;40.98;25.30;;;;;;;8.40;62.44;100350.02;1817250;78;25884;-73
2021/04/19 21:58:03;;;;;;;47.27;25.82;;;;;;;8.34;62.72;100349.30;1815875;78;26356;-72
2021/04/19 22:00:37;;;;;;;38.17;25.65;;;;;;;8.29;63.13;100352.59;1817376;78;26800;-75
2021/04/19 22:03:07;;;;;;;40.48;24.50;;;;;;;8.22;63.40;100355.65;1817545;78;25693;-74
2021/04/19 22:05:36;;;;;;;37.98;24.60;;;;;;;8.16;63.47;100349.55;1817478;78;26335;-74
2021/04/19 22:08:05;;;;;;;32.50;22.90;;;;;;;8.12;63.62;100353.92;1814318;78;25745;-75
2021/04/19 22:10:34;;;;;;;37.42;22.77;;;;;;;8.06;63.84;100350.23;1785711;80;25619;-74
2021/04/19 22:13:02;;;;;;;;;;;;;;;8.01;64.13;100351.10;1787873;80;25906;-75
2021/04/19 22:15:29;;;;;;;35.15;21.57;;;;;;;7.95;64.33;100350.91;1785310;80;25760;-74
2021/04/19 22:17:56;;;;;;;41.10;24.87;;;;;;;7.90;64.64;100353.66;1785355;80;25701;-74
2021/04/19 22:20:23;;;;;;;32.88;20.20;;;;;;;7.86;64.87;100350.20;1784680;80;25828;-74
2021/04/19 22:22:52;;;;;;;36.93;20.90;;;;;;;7.82;65.00;100355.13;1785285;80;25621;-74
2021/04/19 22:25:23;;;;;;;28.85;18.65;;;;;;;7.79;65.17;100347.62;1786084;78;25884;-75
2021/04/19 22:27:52;;;;;;;35.43;18.77;;;;;;;7.75;65.40;100347.39;1807021;78;25654;-77
2021/04/19 22:30:41;;;;;;;33.40;20.80;;;;;;;7.73;65.51;100347.41;1785735;80;25584;-77
2021/04/19 22:33:08;;;;;;;35.58;21.27;;;;;;;7.70;65.62;100343.97;1747440;82;25598;-75
2021/04/19 22:35:35;;;;;;;35.63;21.52;;;;;;;7.66;65.53;100341.85;1747129;82;25708;-75
2021/04/19 22:38:06;;;;;;;34.53;20.52;;;;;;;7.63;65.48;100344.32;1728492;82;25893;-73
2021/04/19 22:40:35;;;;;;;35.98;21.87;;;;;;;7.61;65.76;100338.40;1747377;81;25553;-75
2021/04/19 22:43:03;;;;;;;35.58;24.23;;;;;;;7.58;66.12;100330.37;1747007;82;25643;-74
2021/04/19 22:45:34;;;;;;;33.50;22.58;;;;;;;7.58;66.49;100332.27;1747376;82;25712;-73
2021/04/19 22:48:02;;;;;;;39.23;23.67;;;;;;;7.59;66.41;100328.47;1747179;82;25600;-72
2021/04/19 22:50:31;;;;;;;35.85;22.87;;;;;;;7.58;66.54;100330.37;1746939;82;25802;-73
2021/04/19 22:52:57;;;;;;;40.60;24.65;;;;;;;7.55;66.31;100326.90;1727899;82;25688;-75
2021/04/19 22:55:26;;;;;;;37.05;25.48;;;;;;;7.54;66.18;100323.94;1703603;82;25841;-74
2021/04/19 22:57:55;;;;;;;43.08;27.60;;;;;;;7.52;66.20;100322.08;1746679;82;28699;-74
2021/04/19 23:00:24;;;;;;;39.33;26.17;;;;;;;7.50;66.15;100315.41;1746831;81;25609;-75
2021/04/19 23:02:54;;;;;;;37.13;25.05;;;;;;;7.47;66.24;100320.28;1746917;82;25698;-75
2021/04/19 23:05:21;;;;;;;38.53;24.85;;;;;;;7.45;66.26;100319.73;1746422;81;25622;-75
2021/04/19 23:07:52;;;;;;;36.80;23.73;;;;;;;7.41;66.11;100311.99;1727605;82;26302;-74
2021/04/19 23:10:20;;;;;;;42.20;25.08;;;;;;;7.39;66.18;100314.17;1746632;82;25660;-75
2021/04/19 23:12:48;;;;;;;39.23;24.60;;;;;;;7.36;66.45;100321.47;1746440;81;25600;-76
2021/04/19 23:15:17;;;;;;;35.70;23.98;;;;;;;7.32;66.58;100320.45;1746645;82;25905;-76
2021/04/19 23:17:43;;;;;;;54.03;33.05;;;;;;;7.28;66.71;100320.20;1727833;82;25936;-76
2021/04/19 23:20:11;;;;;;;56.05;34.15;;;;;;;7.22;66.75;100317.84;1746304;82;25721;-76
2021/04/19 23:22:38;;;;;;;41.05;25.02;;;;;;;7.20;67.00;100324.88;1746548;81;26322;-76
2021/04/19 23:25:07;;;;;;;34.67;22.70;;;;;;;7.17;66.92;100323.28;1746785;82;25661;-75
2021/04/19 23:27:35;;;;;;;37.70;23.32;;;;;;;7.13;67.14;100320.36;1746955;81;25699;-76
2021/04/19 23:30:09;;;;;;;36.13;23.42;;;;;;;7.07;67.22;100318.27;1746382;82;26357;-77
2021/04/19 23:32:37;;;;;;;36.53;21.55;;;;;;;7.02;67.22;100320.23;1746550;82;25673;-75
2021/04/19 23:35:07;;;;;;;35.55;22.82;;;;;;;6.97;67.27;100313.55;1746352;82;25665;-76
2021/04/19 23:37:35;;;;;;;;;;;;;;;6.93;67.76;100317.36;1749510;82;25681;-77
2021/04/19 23:40:09;;;;;;;33.70;20.57;;;;;;;6.88;67.75;100311.47;1741684;81;26508;-77
2021/04/19 23:42:37;;;;;;;36.90;22.55;;;;;;;6.85;67.75;100309.89;1731167;82;25682;-77
2021/04/19 23:45:09;;;;;;;32.60;21.27;;;;;;;6.81;67.72;100311.01;1746757;82;25817;-77
2021/04/19 23:47:36;;;;;;;35.40;21.52;;;;;;;6.76;67.77;100303.52;1746867;82;26250;-76
2021/04/19 23:50:05;;;;;;;32.33;20.90;;;;;;;6.71;68.06;100309.20;1746491;82;25645;-76
2021/04/19 23:52:33;;;;;;;31.60;21.80;;;;;;;6.67;68.14;100308.70;1746532;81;25968;-75
2021/04/19 23:54:59;;;;;;;38.83;20.90;;;;;;;6.61;68.02;100305.27;1746453;82;25573;-70
2021/04/19 23:57:26;;;;;;;29.02;20.68;;;;;;;6.54;68.13;100309.61;1747158;82;25631;-71
2021/04/19 23:59:53;;;;;;;35.80;20.40;;;;;;;6.47;68.21;100311.00;1746682;82;25653;-71
